sensor_id;sensor_type;location;lat;lon;timestamp;temperature;humidity
5588;DHT22;2816;49.778;9.986;2023-11-18T00:00:12;3.40;99.90
5588;DHT22;2816;49.778;9.986;2023-11-18T00:02:42;3.30;99.90
5588;DHT22;2816;49.778;9.986;2023-11-18T00:05:09;3.40;99.90
5588;DHT22;2816;49.778;9.986;2023-11-18T00:07:36;3.30;99.90
5588;DHT22;2816;49.778;9.986;2023-11-18T00:10:03;3.30;99.90
5588;DHT22;2816;49.778;9.986;2023-11-18T00:12:31;3.20;99.90
5588;DHT22;2816;49.778;9.986;2023-11-18T00:15:00;3.20;99.90
5588;DHT22;2816;49.778;9.986;2023-11-18T00:17:30;3.20;99.90
5588;DHT22;2816;49.778;9.986;2023-11-18T00:19:57;3.10;99.90
5588;DHT22;2816;49.778;9.986;2023-11-18T00:22:28;3.10;99.90
5588;DHT22;2816;49.778;9.986;2023-11-18T00:24:55;3.10;99.90
5588;DHT22;2816;49.778;9.986;2023-11-18T00:27:22;3.10;99.90
5588;DHT22;2816;49.778;9.986;2023-11-18T00:29:50;3.00;99.90
5588;DHT22;2816;49.778;9.986;2023-11-18T00:32:18;3.00;99.90
5588;DHT22;2816;49.778;9.986;2023-11-18T00:34:46;3.00;99.90
5588;DHT22;2816;49.778;9.986;2023-11-18T00:37:13;3.00;99.90
5588;DHT22;2816;49.778;9.986;2023-11-18T00:39:40;2.90;99.90
5588;DHT22;2816;49.778;9.986;2023-11-18T00:42:08;2.90;99.90
5588;DHT22;2816;49.778;9.986;2023-11-18T00:44:35;2.80;99.90
5588;DHT22;2816;49.778;9.986;2023-11-18T00:47:02;2.80;99.90
5588;DHT22;2816;49.778;9.986;2023-11-18T00:49:29;2.80;99.90
5588;DHT22;2816;49.778;9.986;2023-11-18T00:51:57;2.80;99.90
5588;DHT22;2816;49.778;9.986;2023-11-18T00:54:24;2.80;99.90
5588;DHT22;2816;49.778;9.986;2023-11-18T00:56:52;2.80;99.90
5588;DHT22;2816;49.778;9.986;2023-11-18T00:59:19;2.80;99.90
5588;DHT22;2816;49.778;9.986;2023-11-18T01:01:46;2.80;99.90
5588;DHT22;2816;49.778;9.986;2023-11-18T01:04:14;2.70;99.90
5588;DHT22;2816;49.778;9.986;2023-11-18T01:06:42;2.80;99.90
5588;DHT22;2816;49.778;9.986;2023-11-18T01:09:10;2.80;99.90
5588;DHT22;2816;49.778;9.986;2023-11-18T01:11:37;2.80;99.90
5588;DHT22;2816;49.778;9.986;2023-11-18T01:14:06;2.80;99.90
5588;DHT22;2816;49.778;9.986;2023-11-18T01:16:33;2.80;99.90
5588;DHT22;2816;49.778;9.986;2023-11-18T01:19:00;2.80;99.90
5588;DHT22;2816;49.778;9.986;2023-11-18T01:21:28;2.80;99.90
5588;DHT22;2816;49.778;9.986;2023-11-18T01:23:55;2.80;99.90
5588;DHT22;2816;49.778;9.986;2023-11-18T01:26:23;2.80;99.90
5588;DHT22;2816;49.778;9.986;2023-11-18T01:28:50;2.80;99.90
5588;DHT22;2816;49.778;9.986;2023-11-18T01:31:17;2.70;99.90
5588;DHT22;2816;49.778;9.986;2023-11-18T01:33:44;2.70;99.90
5588;DHT22;2816;49.778;9.986;2023-11-18T01:36:12;2.70;99.90
5588;DHT22;2816;49.778;9.986;2023-11-18T01:38:39;2.70;99.90
5588;DHT22;2816;49.778;9.986;2023-11-18T01:41:06;2.70;99.90
5588;DHT22;2816;49.778;9.986;2023-11-18T01:43:36;2.70;99.90
5588;DHT22;2816;49.778;9.986;2023-11-18T01:46:05;2.70;99.90
5588;DHT22;2816;49.778;9.986;2023-11-18T01:48:36;2.60;99.90
5588;DHT22;2816;49.778;9.986;2023-11-18T01:51:05;2.40;99.90
5588;DHT22;2816;49.778;9.986;2023-11-18T01:53:33;2.40;99.90
5588;DHT22;2816;49.778;9.986;2023-11-18T01:56:03;2.30;99.90
5588;DHT22;2816;49.778;9.986;2023-11-18T01:58:32;2.30;99.90
5588;DHT22;2816;49.778;9.986;2023-11-18T02:01:03;2.30;99.90
5588;DHT22;2816;49.778;9.986;2023-11-18T02:03:32;2.40;99.90
5588;DHT22;2816;49.778;9.986;2023-11-18T02:05:59;2.50;99.90
5588;DHT22;2816;49.778;9.986;2023-11-18T02:08:26;2.50;99.90
5588;DHT22;2816;49.778;9.986;2023-11-18T02:10:57;2.50;99.90
5588;DHT22;2816;49.778;9.986;2023-11-18T02:13:31;2.50;99.90
5588;DHT22;2816;49.778;9.986;2023-11-18T02:15:59;2.50;99.90
5588;DHT22;2816;49.778;9.986;2023-11-18T02:18:29;2.40;99.90
5588;DHT22;2816;49.778;9.986;2023-11-18T02:20:57;2.50;99.90
5588;DHT22;2816;49.778;9.986;2023-11-18T02:23:25;2.50;99.90
5588;DHT22;2816;49.778;9.986;2023-11-18T02:25:54;2.50;99.90
5588;DHT22;2816;49.778;9.986;2023-11-18T02:28:21;2.50;99.90
5588;DHT22;2816;49.778;9.986;2023-11-18T02:30:56;2.40;99.90
5588;DHT22;2816;49.778;9.986;2023-11-18T02:33:27;2.10;99.90
5588;DHT22;2816;49.778;9.986;2023-11-18T02:36:02;2.20;99.90
5588;DHT22;2816;49.778;9.986;2023-11-18T02:38:37;2.30;99.90
5588;DHT22;2816;49.778;9.986;2023-11-18T02:41:11;2.20;99.90
5588;DHT22;2816;49.778;9.986;2023-11-18T02:43:40;2.10;99.90
5588;DHT22;2816;49.778;9.986;2023-11-18T02:46:07;2.20;99.90
5588;DHT22;2816;49.778;9.986;2023-11-18T02:48:38;2.20;99.90
5588;DHT22;2816;49.778;9.986;2023-11-18T02:51:07;2.20;99.90
5588;DHT22;2816;49.778;9.986;2023-11-18T02:53:34;2.00;99.90
5588;DHT22;2816;49.778;9.986;2023-11-18T02:56:01;1.90;99.90
5588;DHT22;2816;49.778;9.986;2023-11-18T02:58:31;1.90;99.90
5588;DHT22;2816;49.778;9.986;2023-11-18T03:00:58;1.50;99.90
5588;DHT22;2816;49.778;9.986;2023-11-18T03:03:26;1.30;99.90
5588;DHT22;2816;49.778;9.986;2023-11-18T03:05:53;1.60;99.90
5588;DHT22;2816;49.778;9.986;2023-11-18T03:08:20;1.70;99.90
5588;DHT22;2816;49.778;9.986;2023-11-18T03:10:47;1.80;99.90
5588;DHT22;2816;49.778;9.986;2023-11-18T03:13:18;1.70;99.90
5588;DHT22;2816;49.778;9.986;2023-11-18T03:15:46;1.70;99.90
5588;DHT22;2816;49.778;9.986;2023-11-18T03:18:14;1.60;99.90
5588;DHT22;2816;49.778;9.986;2023-11-18T03:20:41;1.50;99.90
5588;DHT22;2816;49.778;9.986;2023-11-18T03:23:08;1.70;99.90
5588;DHT22;2816;49.778;9.986;2023-11-18T03:25:35;1.70;99.90
5588;DHT22;2816;49.778;9.986;2023-11-18T03:28:03;1.80;99.90
5588;DHT22;2816;49.778;9.986;2023-11-18T03:30:32;1.70;99.90
5588;DHT22;2816;49.778;9.986;2023-11-18T03:33:00;1.80;99.90
5588;DHT22;2816;49.778;9.986;2023-11-18T03:35:27;1.70;99.90
5588;DHT22;2816;49.778;9.986;2023-11-18T03:37:55;1.70;99.90
5588;DHT22;2816;49.778;9.986;2023-11-18T03:40:22;1.60;99.90
5588;DHT22;2816;49.778;9.986;2023-11-18T03:42:49;1.80;99.90
5588;DHT22;2816;49.778;9.986;2023-11-18T03:45:15;1.80;99.90
5588;DHT22;2816;49.778;9.986;2023-11-18T03:47:43;1.90;99.90
5588;DHT22;2816;49.778;9.986;2023-11-18T03:50:12;1.90;99.90
5588;DHT22;2816;49.778;9.986;2023-11-18T03:52:40;1.90;99.90
5588;DHT22;2816;49.778;9.986;2023-11-18T03:55:07;1.90;99.90
5588;DHT22;2816;49.778;9.986;2023-11-18T03:57:34;1.90;99.90
5588;DHT22;2816;49.778;9.986;2023-11-18T04:00:02;1.80;99.90
5588;DHT22;2816;49.778;9.986;2023-11-18T04:02:29;1.70;99.90
5588;DHT22;2816;49.778;9.986;2023-11-18T04:04:56;1.70;99.90
5588;DHT22;2816;49.778;9.986;2023-11-18T04:07:24;1.70;99.90
5588;DHT22;2816;49.778;9.986;2023-11-18T04:09:50;1.60;99.90
5588;DHT22;2816;49.778;9.986;2023-11-18T04:12:17;1.60;99.90
5588;DHT22;2816;49.778;9.986;2023-11-18T04:14:44;1.60;99.90
5588;DHT22;2816;49.778;9.986;2023-11-18T04:17:11;1.50;99.90
5588;DHT22;2816;49.778;9.986;2023-11-18T04:19:38;1.50;99.90
5588;DHT22;2816;49.778;9.986;2023-11-18T04:22:05;1.40;99.90
5588;DHT22;2816;49.778;9.986;2023-11-18T04:24:33;1.50;99.90
5588;DHT22;2816;49.778;9.986;2023-11-18T04:27:01;1.50;99.90
5588;DHT22;2816;49.778;9.986;2023-11-18T04:29:28;1.60;99.90
5588;DHT22;2816;49.778;9.986;2023-11-18T04:31:55;1.70;99.90
5588;DHT22;2816;49.778;9.986;2023-11-18T04:34:22;1.60;99.90
5588;DHT22;2816;49.778;9.986;2023-11-18T04:36:50;1.60;99.90
5588;DHT22;2816;49.778;9.986;2023-11-18T04:39:17;1.60;99.90
5588;DHT22;2816;49.778;9.986;2023-11-18T04:41:47;1.60;99.90
5588;DHT22;2816;49.778;9.986;2023-11-18T04:44:14;1.50;99.90
5588;DHT22;2816;49.778;9.986;2023-11-18T04:46:41;1.40;99.90
5588;DHT22;2816;49.778;9.986;2023-11-18T04:49:09;1.40;99.90
5588;DHT22;2816;49.778;9.986;2023-11-18T04:51:36;1.40;99.90
5588;DHT22;2816;49.778;9.986;2023-11-18T04:54:05;1.40;99.90
5588;DHT22;2816;49.778;9.986;2023-11-18T04:56:33;1.40;99.90
5588;DHT22;2816;49.778;9.986;2023-11-18T04:59:02;1.40;99.90
5588;DHT22;2816;49.778;9.986;2023-11-18T05:01:30;1.40;99.90
5588;DHT22;2816;49.778;9.986;2023-11-18T05:03:57;1.50;99.90
5588;DHT22;2816;49.778;9.986;2023-11-18T05:06:24;1.50;99.90
5588;DHT22;2816;49.778;9.986;2023-11-18T05:08:52;1.50;99.90
5588;DHT22;2816;49.778;9.986;2023-11-18T05:11:21;1.40;99.90
5588;DHT22;2816;49.778;9.986;2023-11-18T05:13:49;1.30;99.90
5588;DHT22;2816;49.778;9.986;2023-11-18T05:16:17;1.20;99.90
5588;DHT22;2816;49.778;9.986;2023-11-18T05:18:44;1.00;99.90
5588;DHT22;2816;49.778;9.986;2023-11-18T05:21:11;1.20;99.90
5588;DHT22;2816;49.778;9.986;2023-11-18T05:23:38;1.20;99.90
5588;DHT22;2816;49.778;9.986;2023-11-18T05:26:06;1.30;99.90
5588;DHT22;2816;49.778;9.986;2023-11-18T05:28:33;1.30;99.90
5588;DHT22;2816;49.778;9.986;2023-11-18T05:31:00;1.30;99.90
5588;DHT22;2816;49.778;9.986;2023-11-18T05:33:29;1.30;99.90
5588;DHT22;2816;49.778;9.986;2023-11-18T05:35:57;1.30;99.90
5588;DHT22;2816;49.778;9.986;2023-11-18T05:38:24;1.30;99.90
5588;DHT22;2816;49.778;9.986;2023-11-18T05:40:53;1.30;99.90
5588;DHT22;2816;49.778;9.986;2023-11-18T05:43:23;1.30;99.90
5588;DHT22;2816;49.778;9.986;2023-11-18T05:45:51;1.30;99.90
5588;DHT22;2816;49.778;9.986;2023-11-18T05:48:39;1.20;99.90
5588;DHT22;2816;49.778;9.986;2023-11-18T05:51:06;1.20;99.90
5588;DHT22;2816;49.778;9.986;2023-11-18T05:53:33;1.20;99.90
5588;DHT22;2816;49.778;9.986;2023-11-18T05:56:01;1.30;99.90
5588;DHT22;2816;49.778;9.986;2023-11-18T05:58:29;1.30;99.90
5588;DHT22;2816;49.778;9.986;2023-11-18T06:00:56;1.20;99.90
5588;DHT22;2816;49.778;9.986;2023-11-18T06:03:24;1.20;99.90
5588;DHT22;2816;49.778;9.986;2023-11-18T06:05:52;1.30;99.90
5588;DHT22;2816;49.778;9.986;2023-11-18T06:08:19;1.20;99.90
5588;DHT22;2816;49.778;9.986;2023-11-18T06:10:48;0.70;99.90
5588;DHT22;2816;49.778;9.986;2023-11-18T06:13:17;0.90;99.90
5588;DHT22;2816;49.778;9.986;2023-11-18T06:15:44;1.00;99.90
5588;DHT22;2816;49.778;9.986;2023-11-18T06:18:11;1.00;99.90
5588;DHT22;2816;49.778;9.986;2023-11-18T06:20:39;1.20;99.90
5588;DHT22;2816;49.778;9.986;2023-11-18T06:23:07;1.20;99.90
5588;DHT22;2816;49.778;9.986;2023-11-18T06:25:34;1.20;99.90
5588;DHT22;2816;49.778;9.986;2023-11-18T06:28:01;1.20;99.90
5588;DHT22;2816;49.778;9.986;2023-11-18T06:30:29;1.30;99.90
5588;DHT22;2816;49.778;9.986;2023-11-18T06:32:56;1.80;99.90
5588;DHT22;2816;49.778;9.986;2023-11-18T06:35:23;1.60;99.90
5588;DHT22;2816;49.778;9.986;2023-11-18T06:37:50;1.50;99.90
5588;DHT22;2816;49.778;9.986;2023-11-18T06:40:19;1.50;99.90
5588;DHT22;2816;49.778;9.986;2023-11-18T06:42:47;1.50;99.90
5588;DHT22;2816;49.778;9.986;2023-11-18T06:45:14;1.60;99.90
5588;DHT22;2816;49.778;9.986;2023-11-18T06:47:42;1.60;99.90
5588;DHT22;2816;49.778;9.986;2023-11-18T06:50:10;1.60;99.90
5588;DHT22;2816;49.778;9.986;2023-11-18T06:52:39;1.60;99.90
5588;DHT22;2816;49.778;9.986;2023-11-18T06:55:07;1.70;99.90
5588;DHT22;2816;49.778;9.986;2023-11-18T06:57:36;1.70;99.90
5588;DHT22;2816;49.778;9.986;2023-11-18T07:00:05;1.70;99.90
5588;DHT22;2816;49.778;9.986;2023-11-18T07:02:34;1.80;99.90
5588;DHT22;2816;49.778;9.986;2023-11-18T07:05:01;1.60;99.90
5588;DHT22;2816;49.778;9.986;2023-11-18T07:07:28;1.60;99.90
5588;DHT22;2816;49.778;9.986;2023-11-18T07:09:55;1.70;99.90
5588;DHT22;2816;49.778;9.986;2023-11-18T07:12:22;1.70;99.90
5588;DHT22;2816;49.778;9.986;2023-11-18T07:14:50;1.80;99.90
5588;DHT22;2816;49.778;9.986;2023-11-18T07:17:19;1.80;99.90
5588;DHT22;2816;49.778;9.986;2023-11-18T07:19:46;1.90;99.90
5588;DHT22;2816;49.778;9.986;2023-11-18T07:22:13;1.90;99.90
5588;DHT22;2816;49.778;9.986;2023-11-18T07:24:40;1.90;99.90
5588;DHT22;2816;49.778;9.986;2023-11-18T07:27:09;2.00;99.90
5588;DHT22;2816;49.778;9.986;2023-11-18T07:29:37;2.00;99.90
5588;DHT22;2816;49.778;9.986;2023-11-18T07:32:05;2.10;99.90
5588;DHT22;2816;49.778;9.986;2023-11-18T07:34:32;2.20;99.90
5588;DHT22;2816;49.778;9.986;2023-11-18T07:37:00;2.10;99.90
5588;DHT22;2816;49.778;9.986;2023-11-18T07:39:27;2.20;99.90
5588;DHT22;2816;49.778;9.986;2023-11-18T07:42:10;2.20;99.90
5588;DHT22;2816;49.778;9.986;2023-11-18T07:44:38;2.20;99.90
5588;DHT22;2816;49.778;9.986;2023-11-18T07:47:07;2.20;99.90
5588;DHT22;2816;49.778;9.986;2023-11-18T07:49:34;2.20;99.90
5588;DHT22;2816;49.778;9.986;2023-11-18T07:52:01;2.20;99.90
5588;DHT22;2816;49.778;9.986;2023-11-18T07:54:28;2.20;99.90
5588;DHT22;2816;49.778;9.986;2023-11-18T07:56:55;2.20;99.90
5588;DHT22;2816;49.778;9.986;2023-11-18T07:59:23;2.30;99.90
5588;DHT22;2816;49.778;9.986;2023-11-18T08:01:49;2.30;99.90
5588;DHT22;2816;49.778;9.986;2023-11-18T08:04:20;2.30;99.90
5588;DHT22;2816;49.778;9.986;2023-11-18T08:06:47;2.40;99.90
5588;DHT22;2816;49.778;9.986;2023-11-18T08:09:14;2.40;99.90
5588;DHT22;2816;49.778;9.986;2023-11-18T08:11:48;2.40;99.90
5588;DHT22;2816;49.778;9.986;2023-11-18T08:14:15;2.40;99.90
5588;DHT22;2816;49.778;9.986;2023-11-18T08:16:42;2.30;99.90
5588;DHT22;2816;49.778;9.986;2023-11-18T08:19:08;2.30;99.90
5588;DHT22;2816;49.778;9.986;2023-11-18T08:21:37;2.40;99.90
5588;DHT22;2816;49.778;9.986;2023-11-18T08:24:05;2.50;99.90
5588;DHT22;2816;49.778;9.986;2023-11-18T08:26:33;2.50;99.90
5588;DHT22;2816;49.778;9.986;2023-11-18T08:29:01;2.60;99.90
5588;DHT22;2816;49.778;9.986;2023-11-18T08:31:28;2.60;99.90
5588;DHT22;2816;49.778;9.986;2023-11-18T08:33:56;2.70;99.90
5588;DHT22;2816;49.778;9.986;2023-11-18T08:36:23;2.70;99.90
5588;DHT22;2816;49.778;9.986;2023-11-18T08:38:54;2.80;99.90
5588;DHT22;2816;49.778;9.986;2023-11-18T08:41:22;2.90;99.90
5588;DHT22;2816;49.778;9.986;2023-11-18T08:43:49;2.80;99.90
5588;DHT22;2816;49.778;9.986;2023-11-18T08:46:16;2.90;99.90
5588;DHT22;2816;49.778;9.986;2023-11-18T08:48:43;2.90;99.90
5588;DHT22;2816;49.778;9.986;2023-11-18T08:51:10;3.00;99.90
5588;DHT22;2816;49.778;9.986;2023-11-18T08:53:38;3.00;99.90
5588;DHT22;2816;49.778;9.986;2023-11-18T08:56:09;3.00;99.90
5588;DHT22;2816;49.778;9.986;2023-11-18T08:58:41;3.10;99.90
5588;DHT22;2816;49.778;9.986;2023-11-18T09:01:11;3.10;99.90
5588;DHT22;2816;49.778;9.986;2023-11-18T09:03:41;3.10;99.90
5588;DHT22;2816;49.778;9.986;2023-11-18T09:06:14;3.20;99.90
5588;DHT22;2816;49.778;9.986;2023-11-18T09:08:45;3.30;99.90
5588;DHT22;2816;49.778;9.986;2023-11-18T09:11:14;3.30;99.90
5588;DHT22;2816;49.778;9.986;2023-11-18T09:13:43;3.40;99.90
5588;DHT22;2816;49.778;9.986;2023-11-18T09:16:11;3.50;99.90
5588;DHT22;2816;49.778;9.986;2023-11-18T09:18:37;3.40;99.90
5588;DHT22;2816;49.778;9.986;2023-11-18T09:21:07;3.40;99.90
5588;DHT22;2816;49.778;9.986;2023-11-18T09:23:40;3.40;99.90
5588;DHT22;2816;49.778;9.986;2023-11-18T09:26:07;3.50;99.90
5588;DHT22;2816;49.778;9.986;2023-11-18T09:28:37;3.50;99.90
5588;DHT22;2816;49.778;9.986;2023-11-18T09:31:05;3.60;99.90
5588;DHT22;2816;49.778;9.986;2023-11-18T09:33:33;3.60;99.90
5588;DHT22;2816;49.778;9.986;2023-11-18T09:36:01;3.70;99.90
5588;DHT22;2816;49.778;9.986;2023-11-18T09:38:28;3.70;99.90
5588;DHT22;2816;49.778;9.986;2023-11-18T09:40:56;3.70;99.90
5588;DHT22;2816;49.778;9.986;2023-11-18T09:43:26;3.80;99.90
5588;DHT22;2816;49.778;9.986;2023-11-18T09:46:03;3.80;99.90
5588;DHT22;2816;49.778;9.986;2023-11-18T09:48:34;3.80;99.90
5588;DHT22;2816;49.778;9.986;2023-11-18T09:51:07;3.90;99.90
5588;DHT22;2816;49.778;9.986;2023-11-18T09:53:37;4.00;99.90
5588;DHT22;2816;49.778;9.986;2023-11-18T09:56:09;4.00;99.90
5588;DHT22;2816;49.778;9.986;2023-11-18T09:58:54;4.00;99.90
5588;DHT22;2816;49.778;9.986;2023-11-18T10:01:26;4.10;99.90
5588;DHT22;2816;49.778;9.986;2023-11-18T10:03:58;4.10;99.90
5588;DHT22;2816;49.778;9.986;2023-11-18T10:06:26;4.20;99.90
5588;DHT22;2816;49.778;9.986;2023-11-18T10:08:55;4.30;99.90
5588;DHT22;2816;49.778;9.986;2023-11-18T10:11:22;4.40;99.90
5588;DHT22;2816;49.778;9.986;2023-11-18T10:13:49;4.40;99.90
5588;DHT22;2816;49.778;9.986;2023-11-18T10:16:16;4.50;99.90
5588;DHT22;2816;49.778;9.986;2023-11-18T10:18:45;4.40;99.90
5588;DHT22;2816;49.778;9.986;2023-11-18T10:21:15;4.50;99.90
5588;DHT22;2816;49.778;9.986;2023-11-18T10:23:59;4.60;99.90
5588;DHT22;2816;49.778;9.986;2023-11-18T10:26:27;4.60;99.90
5588;DHT22;2816;49.778;9.986;2023-11-18T10:28:59;4.70;99.90
5588;DHT22;2816;49.778;9.986;2023-11-18T10:31:33;4.70;99.90
5588;DHT22;2816;49.778;9.986;2023-11-18T10:34:02;4.80;99.90
5588;DHT22;2816;49.778;9.986;2023-11-18T10:36:30;4.80;99.90
5588;DHT22;2816;49.778;9.986;2023-11-18T10:38:59;4.80;99.90
5588;DHT22;2816;49.778;9.986;2023-11-18T10:41:30;4.90;99.90
5588;DHT22;2816;49.778;9.986;2023-11-18T10:44:09;4.90;99.90
5588;DHT22;2816;49.778;9.986;2023-11-18T10:46:40;4.90;99.90
5588;DHT22;2816;49.778;9.986;2023-11-18T10:49:08;5.00;99.90
5588;DHT22;2816;49.778;9.986;2023-11-18T10:51:36;5.00;99.90
5588;DHT22;2816;49.778;9.986;2023-11-18T10:54:05;5.00;99.90
5588;DHT22;2816;49.778;9.986;2023-11-18T10:56:46;5.00;99.90
5588;DHT22;2816;49.778;9.986;2023-11-18T10:59:14;5.10;99.90
5588;DHT22;2816;49.778;9.986;2023-11-18T11:01:42;5.10;99.90
5588;DHT22;2816;49.778;9.986;2023-11-18T11:04:12;5.10;99.90
5588;DHT22;2816;49.778;9.986;2023-11-18T11:06:43;5.20;99.90
5588;DHT22;2816;49.778;9.986;2023-11-18T11:09:17;5.10;99.90
5588;DHT22;2816;49.778;9.986;2023-11-18T11:11:47;5.10;99.90
5588;DHT22;2816;49.778;9.986;2023-11-18T11:14:15;5.20;99.90
5588;DHT22;2816;49.778;9.986;2023-11-18T11:16:47;5.30;99.90
5588;DHT22;2816;49.778;9.986;2023-11-18T11:19:24;5.40;99.90
5588;DHT22;2816;49.778;9.986;2023-11-18T11:22:03;5.40;99.90
5588;DHT22;2816;49.778;9.986;2023-11-18T11:24:49;5.50;99.90
5588;DHT22;2816;49.778;9.986;2023-11-18T11:27:23;5.50;99.90
5588;DHT22;2816;49.778;9.986;2023-11-18T11:30:08;5.60;99.90
5588;DHT22;2816;49.778;9.986;2023-11-18T11:32:44;5.60;99.90
5588;DHT22;2816;49.778;9.986;2023-11-18T11:35:19;5.70;99.90
5588;DHT22;2816;49.778;9.986;2023-11-18T11:37:49;5.80;99.90
5588;DHT22;2816;49.778;9.986;2023-11-18T11:40:16;5.80;99.90
5588;DHT22;2816;49.778;9.986;2023-11-18T11:42:50;5.90;99.90
5588;DHT22;2816;49.778;9.986;2023-11-18T11:45:22;5.90;99.90
5588;DHT22;2816;49.778;9.986;2023-11-18T11:47:55;5.90;99.90
5588;DHT22;2816;49.778;9.986;2023-11-18T11:53:32;6.00;99.90
5588;DHT22;2816;49.778;9.986;2023-11-18T11:56:01;6.10;99.90
5588;DHT22;2816;49.778;9.986;2023-11-18T11:58:34;6.20;99.90
5588;DHT22;2816;49.778;9.986;2023-11-18T12:01:15;6.20;99.90
5588;DHT22;2816;49.778;9.986;2023-11-18T12:03:46;6.30;99.90
5588;DHT22;2816;49.778;9.986;2023-11-18T12:06:19;6.30;99.90
5588;DHT22;2816;49.778;9.986;2023-11-18T12:08:51;6.40;99.90
5588;DHT22;2816;49.778;9.986;2023-11-18T12:11:18;6.50;99.90
5588;DHT22;2816;49.778;9.986;2023-11-18T12:14:03;6.50;99.90
5588;DHT22;2816;49.778;9.986;2023-11-18T12:16:58;6.50;99.90
5588;DHT22;2816;49.778;9.986;2023-11-18T12:19:31;6.60;99.90
5588;DHT22;2816;49.778;9.986;2023-11-18T12:22:04;6.60;99.90
5588;DHT22;2816;49.778;9.986;2023-11-18T12:24:38;6.70;99.90
5588;DHT22;2816;49.778;9.986;2023-11-18T12:27:07;6.70;99.90
5588;DHT22;2816;49.778;9.986;2023-11-18T12:29:41;6.70;99.90
5588;DHT22;2816;49.778;9.986;2023-11-18T12:32:09;6.70;99.90
5588;DHT22;2816;49.778;9.986;2023-11-18T12:34:50;6.60;99.90
5588;DHT22;2816;49.778;9.986;2023-11-18T12:40:53;6.80;99.90
5588;DHT22;2816;49.778;9.986;2023-11-18T12:43:46;6.90;99.90
5588;DHT22;2816;49.778;9.986;2023-11-18T12:49:24;6.90;99.90
5588;DHT22;2816;49.778;9.986;2023-11-18T12:51:52;6.80;99.90
5588;DHT22;2816;49.778;9.986;2023-11-18T12:54:22;6.90;99.90
5588;DHT22;2816;49.778;9.986;2023-11-18T12:56:50;6.90;99.90
5588;DHT22;2816;49.778;9.986;2023-11-18T12:59:19;6.80;99.90
5588;DHT22;2816;49.778;9.986;2023-11-18T13:01:48;6.80;99.90
5588;DHT22;2816;49.778;9.986;2023-11-18T13:04:19;6.80;99.90
5588;DHT22;2816;49.778;9.986;2023-11-18T13:06:47;6.80;99.90
5588;DHT22;2816;49.778;9.986;2023-11-18T13:09:17;6.80;99.90
5588;DHT22;2816;49.778;9.986;2023-11-18T13:11:54;6.80;99.90
5588;DHT22;2816;49.778;9.986;2023-11-18T13:14:23;6.70;99.90
5588;DHT22;2816;49.778;9.986;2023-11-18T13:16:52;6.60;99.90
5588;DHT22;2816;49.778;9.986;2023-11-18T13:19:25;6.70;99.90
5588;DHT22;2816;49.778;9.986;2023-11-18T13:21:56;6.70;99.90
5588;DHT22;2816;49.778;9.986;2023-11-18T13:24:24;6.70;99.90
5588;DHT22;2816;49.778;9.986;2023-11-18T13:26:54;6.70;99.90
5588;DHT22;2816;49.778;9.986;2023-11-18T13:29:22;6.70;99.90
5588;DHT22;2816;49.778;9.986;2023-11-18T13:31:50;6.70;99.90
5588;DHT22;2816;49.778;9.986;2023-11-18T13:34:17;6.70;99.90
5588;DHT22;2816;49.778;9.986;2023-11-18T13:36:46;6.80;99.90
5588;DHT22;2816;49.778;9.986;2023-11-18T13:39:17;6.80;99.90
5588;DHT22;2816;49.778;9.986;2023-11-18T13:41:44;6.80;99.90
5588;DHT22;2816;49.778;9.986;2023-11-18T13:44:31;6.80;99.90
5588;DHT22;2816;49.778;9.986;2023-11-18T13:46:59;6.80;99.90
5588;DHT22;2816;49.778;9.986;2023-11-18T13:49:28;6.80;99.90
5588;DHT22;2816;49.778;9.986;2023-11-18T13:51:55;6.80;99.90
5588;DHT22;2816;49.778;9.986;2023-11-18T13:54:22;6.80;99.90
5588;DHT22;2816;49.778;9.986;2023-11-18T13:56:50;6.80;99.90
5588;DHT22;2816;49.778;9.986;2023-11-18T13:59:19;6.80;99.90
5588;DHT22;2816;49.778;9.986;2023-11-18T14:01:47;6.90;99.90
5588;DHT22;2816;49.778;9.986;2023-11-18T14:04:15;6.90;99.90
5588;DHT22;2816;49.778;9.986;2023-11-18T14:06:43;6.90;99.90
5588;DHT22;2816;49.778;9.986;2023-11-18T14:09:11;6.80;99.90
5588;DHT22;2816;49.778;9.986;2023-11-18T14:11:38;6.80;99.90
5588;DHT22;2816;49.778;9.986;2023-11-18T14:14:05;6.80;99.90
5588;DHT22;2816;49.778;9.986;2023-11-18T14:16:35;6.80;99.90
5588;DHT22;2816;49.778;9.986;2023-11-18T14:19:02;6.80;99.90
5588;DHT22;2816;49.778;9.986;2023-11-18T14:21:31;6.80;99.90
5588;DHT22;2816;49.778;9.986;2023-11-18T14:23:58;6.80;99.90
5588;DHT22;2816;49.778;9.986;2023-11-18T14:26:27;6.80;99.90
5588;DHT22;2816;49.778;9.986;2023-11-18T14:28:55;6.80;99.90
5588;DHT22;2816;49.778;9.986;2023-11-18T14:31:22;6.80;99.90
5588;DHT22;2816;49.778;9.986;2023-11-18T14:33:50;6.80;99.90
5588;DHT22;2816;49.778;9.986;2023-11-18T14:36:17;6.80;99.90
5588;DHT22;2816;49.778;9.986;2023-11-18T14:38:44;6.80;99.90
5588;DHT22;2816;49.778;9.986;2023-11-18T14:41:12;6.80;99.90
5588;DHT22;2816;49.778;9.986;2023-11-18T14:43:39;6.80;99.90
5588;DHT22;2816;49.778;9.986;2023-11-18T14:46:07;6.80;99.90
5588;DHT22;2816;49.778;9.986;2023-11-18T14:48:34;6.70;99.90
5588;DHT22;2816;49.778;9.986;2023-11-18T14:51:03;6.70;99.90
5588;DHT22;2816;49.778;9.986;2023-11-18T14:53:30;6.70;99.90
5588;DHT22;2816;49.778;9.986;2023-11-18T14:55:57;6.70;99.90
5588;DHT22;2816;49.778;9.986;2023-11-18T14:58:24;6.70;99.90
5588;DHT22;2816;49.778;9.986;2023-11-18T15:00:51;6.70;99.90
5588;DHT22;2816;49.778;9.986;2023-11-18T15:03:20;6.70;99.90
5588;DHT22;2816;49.778;9.986;2023-11-18T15:05:46;6.70;99.90
5588;DHT22;2816;49.778;9.986;2023-11-18T15:08:15;6.70;99.90
5588;DHT22;2816;49.778;9.986;2023-11-18T15:10:42;6.70;99.90
5588;DHT22;2816;49.778;9.986;2023-11-18T15:13:11;6.70;99.90
5588;DHT22;2816;49.778;9.986;2023-11-18T15:15:41;6.70;99.90
5588;DHT22;2816;49.778;9.986;2023-11-18T15:18:08;6.70;99.90
5588;DHT22;2816;49.778;9.986;2023-11-18T15:20:39;6.60;99.90
5588;DHT22;2816;49.778;9.986;2023-11-18T15:23:08;6.60;99.90
5588;DHT22;2816;49.778;9.986;2023-11-18T15:25:37;6.60;99.90
5588;DHT22;2816;49.778;9.986;2023-11-18T15:28:04;6.60;99.90
5588;DHT22;2816;49.778;9.986;2023-11-18T15:30:35;6.60;99.90
5588;DHT22;2816;49.778;9.986;2023-11-18T15:33:02;6.60;99.90
5588;DHT22;2816;49.778;9.986;2023-11-18T15:35:30;6.70;99.90
5588;DHT22;2816;49.778;9.986;2023-11-18T15:37:57;6.60;99.90
5588;DHT22;2816;49.778;9.986;2023-11-18T15:40:24;6.70;99.90
5588;DHT22;2816;49.778;9.986;2023-11-18T15:42:52;6.70;99.90
5588;DHT22;2816;49.778;9.986;2023-11-18T15:45:23;6.60;99.90
5588;DHT22;2816;49.778;9.986;2023-11-18T15:47:50;6.60;99.90
5588;DHT22;2816;49.778;9.986;2023-11-18T15:50:17;6.60;99.90
5588;DHT22;2816;49.778;9.986;2023-11-18T15:52:47;6.60;99.90
5588;DHT22;2816;49.778;9.986;2023-11-18T15:55:15;6.60;99.90
5588;DHT22;2816;49.778;9.986;2023-11-18T15:57:44;6.60;99.90
5588;DHT22;2816;49.778;9.986;2023-11-18T16:00:14;6.50;99.90
5588;DHT22;2816;49.778;9.986;2023-11-18T16:02:43;6.50;99.90
5588;DHT22;2816;49.778;9.986;2023-11-18T16:05:11;6.50;99.90
5588;DHT22;2816;49.778;9.986;2023-11-18T16:07:41;6.50;99.90
5588;DHT22;2816;49.778;9.986;2023-11-18T16:10:08;6.50;99.90
5588;DHT22;2816;49.778;9.986;2023-11-18T16:12:36;6.40;99.90
5588;DHT22;2816;49.778;9.986;2023-11-18T16:15:04;6.40;99.90
5588;DHT22;2816;49.778;9.986;2023-11-18T16:17:35;6.40;99.90
5588;DHT22;2816;49.778;9.986;2023-11-18T16:20:02;6.40;99.90
5588;DHT22;2816;49.778;9.986;2023-11-18T16:22:32;6.40;99.90
5588;DHT22;2816;49.778;9.986;2023-11-18T16:24:59;6.30;99.90
5588;DHT22;2816;49.778;9.986;2023-11-18T16:27:26;6.30;99.90
5588;DHT22;2816;49.778;9.986;2023-11-18T16:29:53;6.30;99.90
5588;DHT22;2816;49.778;9.986;2023-11-18T16:32:20;6.30;99.90
5588;DHT22;2816;49.778;9.986;2023-11-18T16:34:48;6.30;99.90
5588;DHT22;2816;49.778;9.986;2023-11-18T16:37:15;6.20;99.90